sensor_id;sensor_type;location;lat;lon;timestamp;temperature;humidity
25092;DHT22;13082;52.374;4.946;2023-08-20T00:00:28;19.50;99.90
25092;DHT22;13082;52.374;4.946;2023-08-20T00:02:59;19.50;99.90
25092;DHT22;13082;52.374;4.946;2023-08-20T00:05:29;19.40;99.90
25092;DHT22;13082;52.374;4.946;2023-08-20T00:07:54;19.30;99.90
25092;DHT22;13082;52.374;4.946;2023-08-20T00:10:20;19.30;99.90
25092;DHT22;13082;52.374;4.946;2023-08-20T00:12:46;19.30;99.90
25092;DHT22;13082;52.374;4.946;2023-08-20T00:15:12;19.30;99.90
25092;DHT22;13082;52.374;4.946;2023-08-20T00:17:39;19.30;99.90
25092;DHT22;13082;52.374;4.946;2023-08-20T00:20:07;19.20;99.90
25092;DHT22;13082;52.374;4.946;2023-08-20T00:22:39;19.20;99.90
25092;DHT22;13082;52.374;4.946;2023-08-20T00:25:05;19.10;99.90
25092;DHT22;13082;52.374;4.946;2023-08-20T00:27:34;19.10;99.90
25092;DHT22;13082;52.374;4.946;2023-08-20T00:29:59;19.10;99.90
25092;DHT22;13082;52.374;4.946;2023-08-20T00:32:25;19.10;99.90
25092;DHT22;13082;52.374;4.946;2023-08-20T00:34:51;19.10;99.90
25092;DHT22;13082;52.374;4.946;2023-08-20T00:37:17;19.10;99.90
25092;DHT22;13082;52.374;4.946;2023-08-20T00:39:43;19.10;99.90
25092;DHT22;13082;52.374;4.946;2023-08-20T00:42:08;19.10;99.90
25092;DHT22;13082;52.374;4.946;2023-08-20T00:44:34;19.00;99.90
25092;DHT22;13082;52.374;4.946;2023-08-20T00:47:01;19.00;99.90
25092;DHT22;13082;52.374;4.946;2023-08-20T00:49:29;19.00;99.90
25092;DHT22;13082;52.374;4.946;2023-08-20T00:51:55;19.00;99.90
25092;DHT22;13082;52.374;4.946;2023-08-20T00:54:22;19.10;99.90
25092;DHT22;13082;52.374;4.946;2023-08-20T00:56:49;19.10;99.90
25092;DHT22;13082;52.374;4.946;2023-08-20T00:59:16;19.10;99.90
25092;DHT22;13082;52.374;4.946;2023-08-20T01:01:41;19.10;99.90
25092;DHT22;13082;52.374;4.946;2023-08-20T01:04:07;19.10;99.90
25092;DHT22;13082;52.374;4.946;2023-08-20T01:11:59;19.30;99.90
25092;DHT22;13082;52.374;4.946;2023-08-20T01:14:25;19.30;99.90
25092;DHT22;13082;52.374;4.946;2023-08-20T01:16:51;19.40;99.90
25092;DHT22;13082;52.374;4.946;2023-08-20T01:19:18;19.40;99.90
25092;DHT22;13082;52.374;4.946;2023-08-20T01:29:35;19.30;99.90
25092;DHT22;13082;52.374;4.946;2023-08-20T01:32:03;19.30;99.90
25092;DHT22;13082;52.374;4.946;2023-08-20T01:34:29;19.30;99.90
25092;DHT22;13082;52.374;4.946;2023-08-20T01:36:55;19.30;99.90
25092;DHT22;13082;52.374;4.946;2023-08-20T01:39:21;19.30;99.90
25092;DHT22;13082;52.374;4.946;2023-08-20T01:41:46;19.40;99.90
25092;DHT22;13082;52.374;4.946;2023-08-20T01:44:12;19.40;99.90
25092;DHT22;13082;52.374;4.946;2023-08-20T01:46:38;19.30;99.90
25092;DHT22;13082;52.374;4.946;2023-08-20T01:49:03;19.30;99.90
25092;DHT22;13082;52.374;4.946;2023-08-20T01:51:29;19.10;99.90
25092;DHT22;13082;52.374;4.946;2023-08-20T01:53:55;19.10;99.90
25092;DHT22;13082;52.374;4.946;2023-08-20T01:56:20;19.10;99.90
25092;DHT22;13082;52.374;4.946;2023-08-20T01:58:46;19.10;99.90
25092;DHT22;13082;52.374;4.946;2023-08-20T02:01:12;19.00;99.90
25092;DHT22;13082;52.374;4.946;2023-08-20T02:03:37;19.00;99.90
25092;DHT22;13082;52.374;4.946;2023-08-20T02:06:06;19.00;99.90
25092;DHT22;13082;52.374;4.946;2023-08-20T02:08:31;19.00;99.90
25092;DHT22;13082;52.374;4.946;2023-08-20T02:11:04;19.00;99.90
25092;DHT22;13082;52.374;4.946;2023-08-20T02:13:30;19.00;99.90
25092;DHT22;13082;52.374;4.946;2023-08-20T02:16:04;18.90;99.90
25092;DHT22;13082;52.374;4.946;2023-08-20T02:18:30;18.90;99.90
25092;DHT22;13082;52.374;4.946;2023-08-20T02:20:56;18.90;99.90
25092;DHT22;13082;52.374;4.946;2023-08-20T02:23:22;18.80;99.90
25092;DHT22;13082;52.374;4.946;2023-08-20T02:25:48;18.70;99.90
25092;DHT22;13082;52.374;4.946;2023-08-20T02:28:14;18.70;99.90
25092;DHT22;13082;52.374;4.946;2023-08-20T02:30:44;18.70;99.90
25092;DHT22;13082;52.374;4.946;2023-08-20T02:33:10;18.60;99.90
25092;DHT22;13082;52.374;4.946;2023-08-20T02:35:37;18.50;99.90
25092;DHT22;13082;52.374;4.946;2023-08-20T02:38:02;18.50;99.90
25092;DHT22;13082;52.374;4.946;2023-08-20T02:40:28;18.50;99.90
25092;DHT22;13082;52.374;4.946;2023-08-20T02:42:54;18.40;99.90
25092;DHT22;13082;52.374;4.946;2023-08-20T02:45:19;18.40;99.90
25092;DHT22;13082;52.374;4.946;2023-08-20T02:47:45;18.50;99.90
25092;DHT22;13082;52.374;4.946;2023-08-20T02:50:10;18.40;99.90
25092;DHT22;13082;52.374;4.946;2023-08-20T02:52:36;18.40;99.90
25092;DHT22;13082;52.374;4.946;2023-08-20T02:55:02;18.30;99.90
25092;DHT22;13082;52.374;4.946;2023-08-20T02:57:30;18.30;99.90
25092;DHT22;13082;52.374;4.946;2023-08-20T02:59:55;18.30;99.90
25092;DHT22;13082;52.374;4.946;2023-08-20T03:02:21;18.30;99.90
25092;DHT22;13082;52.374;4.946;2023-08-20T03:04:47;18.40;99.90
25092;DHT22;13082;52.374;4.946;2023-08-20T03:07:12;18.60;99.90
25092;DHT22;13082;52.374;4.946;2023-08-20T03:09:38;18.70;99.90
25092;DHT22;13082;52.374;4.946;2023-08-20T03:12:03;18.70;99.90
25092;DHT22;13082;52.374;4.946;2023-08-20T03:14:29;18.60;99.90
25092;DHT22;13082;52.374;4.946;2023-08-20T03:16:55;18.70;99.90
25092;DHT22;13082;52.374;4.946;2023-08-20T03:19:20;18.60;99.90
25092;DHT22;13082;52.374;4.946;2023-08-20T03:21:46;18.60;99.90
25092;DHT22;13082;52.374;4.946;2023-08-20T03:24:11;18.60;99.90
25092;DHT22;13082;52.374;4.946;2023-08-20T03:26:37;18.60;99.90
25092;DHT22;13082;52.374;4.946;2023-08-20T03:29:03;18.70;99.90
25092;DHT22;13082;52.374;4.946;2023-08-20T03:31:28;18.90;99.90
25092;DHT22;13082;52.374;4.946;2023-08-20T03:33:54;18.90;99.90
25092;DHT22;13082;52.374;4.946;2023-08-20T03:36:20;18.80;99.90
25092;DHT22;13082;52.374;4.946;2023-08-20T03:38:45;18.70;99.90
25092;DHT22;13082;52.374;4.946;2023-08-20T03:41:11;18.60;99.90
25092;DHT22;13082;52.374;4.946;2023-08-20T03:43:36;18.60;99.90
25092;DHT22;13082;52.374;4.946;2023-08-20T03:46:02;18.50;99.90
25092;DHT22;13082;52.374;4.946;2023-08-20T03:48:28;18.50;99.90
25092;DHT22;13082;52.374;4.946;2023-08-20T03:50:53;18.50;99.90
25092;DHT22;13082;52.374;4.946;2023-08-20T03:53:19;18.50;99.90
25092;DHT22;13082;52.374;4.946;2023-08-20T03:55:48;18.50;99.90
25092;DHT22;13082;52.374;4.946;2023-08-20T03:58:14;18.50;99.90
25092;DHT22;13082;52.374;4.946;2023-08-20T04:00:40;18.50;99.90
25092;DHT22;13082;52.374;4.946;2023-08-20T04:03:06;18.40;99.90
25092;DHT22;13082;52.374;4.946;2023-08-20T04:05:36;18.50;99.90
25092;DHT22;13082;52.374;4.946;2023-08-20T04:08:03;18.50;99.90
25092;DHT22;13082;52.374;4.946;2023-08-20T04:10:29;18.50;99.90
25092;DHT22;13082;52.374;4.946;2023-08-20T04:12:54;18.60;99.90
25092;DHT22;13082;52.374;4.946;2023-08-20T04:15:20;18.50;99.90
25092;DHT22;13082;52.374;4.946;2023-08-20T04:17:45;18.40;99.90
25092;DHT22;13082;52.374;4.946;2023-08-20T04:20:11;18.40;99.90
25092;DHT22;13082;52.374;4.946;2023-08-20T04:22:37;18.40;99.90
25092;DHT22;13082;52.374;4.946;2023-08-20T04:25:03;18.30;99.90
25092;DHT22;13082;52.374;4.946;2023-08-20T04:27:29;18.40;99.90
25092;DHT22;13082;52.374;4.946;2023-08-20T04:29:56;18.30;99.90
25092;DHT22;13082;52.374;4.946;2023-08-20T04:32:21;18.30;99.90
25092;DHT22;13082;52.374;4.946;2023-08-20T04:34:47;18.40;99.90
25092;DHT22;13082;52.374;4.946;2023-08-20T04:37:15;18.50;99.90
25092;DHT22;13082;52.374;4.946;2023-08-20T04:39:40;18.40;99.90
25092;DHT22;13082;52.374;4.946;2023-08-20T04:42:06;18.40;99.90
25092;DHT22;13082;52.374;4.946;2023-08-20T04:44:32;18.30;99.90
25092;DHT22;13082;52.374;4.946;2023-08-20T04:46:59;18.30;99.90
25092;DHT22;13082;52.374;4.946;2023-08-20T04:49:25;18.20;99.90
25092;DHT22;13082;52.374;4.946;2023-08-20T04:51:54;18.20;99.90
25092;DHT22;13082;52.374;4.946;2023-08-20T04:54:19;18.10;99.90
25092;DHT22;13082;52.374;4.946;2023-08-20T04:56:45;18.10;99.90
25092;DHT22;13082;52.374;4.946;2023-08-20T04:59:11;18.00;99.90
25092;DHT22;13082;52.374;4.946;2023-08-20T05:01:38;18.00;99.90
25092;DHT22;13082;52.374;4.946;2023-08-20T05:04:04;18.00;99.90
25092;DHT22;13082;52.374;4.946;2023-08-20T05:06:31;17.90;99.90
25092;DHT22;13082;52.374;4.946;2023-08-20T05:08:56;17.90;99.90
25092;DHT22;13082;52.374;4.946;2023-08-20T05:11:22;17.80;99.90
25092;DHT22;13082;52.374;4.946;2023-08-20T05:13:49;17.70;99.90
25092;DHT22;13082;52.374;4.946;2023-08-20T05:16:15;17.80;99.90
25092;DHT22;13082;52.374;4.946;2023-08-20T05:18:41;17.80;99.90
25092;DHT22;13082;52.374;4.946;2023-08-20T05:21:07;17.80;99.90
25092;DHT22;13082;52.374;4.946;2023-08-20T05:23:33;17.80;99.90
25092;DHT22;13082;52.374;4.946;2023-08-20T05:25:58;17.80;99.90
25092;DHT22;13082;52.374;4.946;2023-08-20T05:28:24;17.80;99.90
25092;DHT22;13082;52.374;4.946;2023-08-20T05:30:56;17.90;99.90
25092;DHT22;13082;52.374;4.946;2023-08-20T05:33:22;17.90;99.90
25092;DHT22;13082;52.374;4.946;2023-08-20T05:35:49;18.00;99.90
25092;DHT22;13082;52.374;4.946;2023-08-20T05:38:14;18.00;99.90
25092;DHT22;13082;52.374;4.946;2023-08-20T05:40:40;18.10;99.90
25092;DHT22;13082;52.374;4.946;2023-08-20T05:43:06;18.20;99.90
25092;DHT22;13082;52.374;4.946;2023-08-20T05:45:32;18.20;99.90
25092;DHT22;13082;52.374;4.946;2023-08-20T05:47:57;18.20;99.90
25092;DHT22;13082;52.374;4.946;2023-08-20T05:50:23;18.30;99.90
25092;DHT22;13082;52.374;4.946;2023-08-20T05:52:48;18.40;99.90
25092;DHT22;13082;52.374;4.946;2023-08-20T05:55:14;18.50;99.90
25092;DHT22;13082;52.374;4.946;2023-08-20T05:57:41;18.60;99.90
25092;DHT22;13082;52.374;4.946;2023-08-20T06:00:08;18.70;99.90
25092;DHT22;13082;52.374;4.946;2023-08-20T06:02:34;18.70;99.90
25092;DHT22;13082;52.374;4.946;2023-08-20T06:04:59;18.80;99.90
25092;DHT22;13082;52.374;4.946;2023-08-20T06:07:25;18.80;99.90
25092;DHT22;13082;52.374;4.946;2023-08-20T06:09:51;18.80;99.90
25092;DHT22;13082;52.374;4.946;2023-08-20T06:12:17;18.80;99.90
25092;DHT22;13082;52.374;4.946;2023-08-20T06:14:42;18.90;99.90
25092;DHT22;13082;52.374;4.946;2023-08-20T06:17:08;18.90;99.90
25092;DHT22;13082;52.374;4.946;2023-08-20T06:19:34;18.90;99.90
25092;DHT22;13082;52.374;4.946;2023-08-20T06:21:59;18.90;99.90
25092;DHT22;13082;52.374;4.946;2023-08-20T06:24:25;19.00;99.90
25092;DHT22;13082;52.374;4.946;2023-08-20T06:26:51;19.10;99.90
25092;DHT22;13082;52.374;4.946;2023-08-20T06:29:17;19.10;99.90
25092;DHT22;13082;52.374;4.946;2023-08-20T06:31:43;19.10;99.90
25092;DHT22;13082;52.374;4.946;2023-08-20T06:34:09;19.10;99.90
25092;DHT22;13082;52.374;4.946;2023-08-20T06:36:35;19.10;99.90
25092;DHT22;13082;52.374;4.946;2023-08-20T06:39:01;19.30;99.90
25092;DHT22;13082;52.374;4.946;2023-08-20T06:41:26;19.30;99.90
25092;DHT22;13082;52.374;4.946;2023-08-20T06:43:52;19.40;99.90
25092;DHT22;13082;52.374;4.946;2023-08-20T06:46:18;19.40;99.90
25092;DHT22;13082;52.374;4.946;2023-08-20T06:48:43;19.50;99.90
25092;DHT22;13082;52.374;4.946;2023-08-20T06:51:13;19.70;99.90
25092;DHT22;13082;52.374;4.946;2023-08-20T06:53:39;19.70;99.90
25092;DHT22;13082;52.374;4.946;2023-08-20T06:56:09;19.80;99.90
25092;DHT22;13082;52.374;4.946;2023-08-20T06:58:40;19.90;99.90
25092;DHT22;13082;52.374;4.946;2023-08-20T07:01:06;20.10;99.90
25092;DHT22;13082;52.374;4.946;2023-08-20T07:03:40;20.20;99.90
25092;DHT22;13082;52.374;4.946;2023-08-20T07:06:06;20.20;99.90
25092;DHT22;13082;52.374;4.946;2023-08-20T07:08:31;20.30;99.90
25092;DHT22;13082;52.374;4.946;2023-08-20T07:10:58;20.30;99.90
25092;DHT22;13082;52.374;4.946;2023-08-20T07:13:23;20.30;99.90
25092;DHT22;13082;52.374;4.946;2023-08-20T07:15:49;20.20;99.90
25092;DHT22;13082;52.374;4.946;2023-08-20T07:18:15;20.30;99.90
25092;DHT22;13082;52.374;4.946;2023-08-20T07:20:44;20.40;99.90
25092;DHT22;13082;52.374;4.946;2023-08-20T07:23:10;20.40;99.90
25092;DHT22;13082;52.374;4.946;2023-08-20T07:25:40;20.50;99.90
25092;DHT22;13082;52.374;4.946;2023-08-20T07:28:07;20.50;99.90
25092;DHT22;13082;52.374;4.946;2023-08-20T07:30:36;20.50;99.90
25092;DHT22;13082;52.374;4.946;2023-08-20T07:33:03;20.60;99.90
25092;DHT22;13082;52.374;4.946;2023-08-20T07:35:28;20.70;99.90
25092;DHT22;13082;52.374;4.946;2023-08-20T07:37:54;20.70;99.90
25092;DHT22;13082;52.374;4.946;2023-08-20T07:40:20;20.80;99.90
25092;DHT22;13082;52.374;4.946;2023-08-20T07:42:45;20.80;99.90
25092;DHT22;13082;52.374;4.946;2023-08-20T07:45:11;20.80;99.90
25092;DHT22;13082;52.374;4.946;2023-08-20T07:47:37;20.80;99.90
25092;DHT22;13082;52.374;4.946;2023-08-20T07:50:04;20.90;99.90
25092;DHT22;13082;52.374;4.946;2023-08-20T07:52:30;21.00;99.90
25092;DHT22;13082;52.374;4.946;2023-08-20T07:54:56;21.10;99.90
25092;DHT22;13082;52.374;4.946;2023-08-20T07:57:21;21.10;99.90
25092;DHT22;13082;52.374;4.946;2023-08-20T07:59:51;21.30;99.90
25092;DHT22;13082;52.374;4.946;2023-08-20T08:02:17;21.30;99.90
25092;DHT22;13082;52.374;4.946;2023-08-20T08:04:43;21.40;99.90
25092;DHT22;13082;52.374;4.946;2023-08-20T08:07:11;21.40;99.90
25092;DHT22;13082;52.374;4.946;2023-08-20T08:09:37;21.50;99.90
25092;DHT22;13082;52.374;4.946;2023-08-20T08:12:05;21.50;99.90
25092;DHT22;13082;52.374;4.946;2023-08-20T08:14:30;21.50;99.90
25092;DHT22;13082;52.374;4.946;2023-08-20T08:16:56;21.60;99.90
25092;DHT22;13082;52.374;4.946;2023-08-20T08:19:22;21.70;99.90
25092;DHT22;13082;52.374;4.946;2023-08-20T08:21:48;21.70;99.90
25092;DHT22;13082;52.374;4.946;2023-08-20T08:24:14;21.80;99.90
25092;DHT22;13082;52.374;4.946;2023-08-20T08:26:40;21.80;99.90
25092;DHT22;13082;52.374;4.946;2023-08-20T08:29:07;21.90;99.90
25092;DHT22;13082;52.374;4.946;2023-08-20T08:31:33;21.90;99.90
25092;DHT22;13082;52.374;4.946;2023-08-20T08:33:59;22.00;99.90
25092;DHT22;13082;52.374;4.946;2023-08-20T08:36:25;22.10;99.90
25092;DHT22;13082;52.374;4.946;2023-08-20T08:38:51;22.20;99.90
25092;DHT22;13082;52.374;4.946;2023-08-20T08:41:17;22.20;99.90
25092;DHT22;13082;52.374;4.946;2023-08-20T08:43:43;22.20;99.90
25092;DHT22;13082;52.374;4.946;2023-08-20T08:46:14;22.30;99.90
25092;DHT22;13082;52.374;4.946;2023-08-20T08:48:42;22.40;99.90
25092;DHT22;13082;52.374;4.946;2023-08-20T08:51:08;22.40;99.90
25092;DHT22;13082;52.374;4.946;2023-08-20T08:53:35;22.50;99.90
25092;DHT22;13082;52.374;4.946;2023-08-20T08:56:01;22.60;99.90
25092;DHT22;13082;52.374;4.946;2023-08-20T08:58:28;22.70;99.90
25092;DHT22;13082;52.374;4.946;2023-08-20T09:00:54;22.70;99.90
25092;DHT22;13082;52.374;4.946;2023-08-20T09:03:20;22.70;99.90
25092;DHT22;13082;52.374;4.946;2023-08-20T09:05:53;22.70;99.90
25092;DHT22;13082;52.374;4.946;2023-08-20T09:08:25;22.70;99.90
25092;DHT22;13082;52.374;4.946;2023-08-20T09:10:52;22.80;99.90
25092;DHT22;13082;52.374;4.946;2023-08-20T09:13:23;22.70;99.90
25092;DHT22;13082;52.374;4.946;2023-08-20T09:15:53;22.70;99.90
25092;DHT22;13082;52.374;4.946;2023-08-20T09:18:20;22.80;99.90
25092;DHT22;13082;52.374;4.946;2023-08-20T09:20:48;22.80;99.90
25092;DHT22;13082;52.374;4.946;2023-08-20T09:23:17;22.80;99.90
25092;DHT22;13082;52.374;4.946;2023-08-20T09:25:43;22.70;99.90
25092;DHT22;13082;52.374;4.946;2023-08-20T09:28:09;22.80;99.90
25092;DHT22;13082;52.374;4.946;2023-08-20T09:30:35;22.80;99.90
25092;DHT22;13082;52.374;4.946;2023-08-20T09:33:06;22.80;99.90
25092;DHT22;13082;52.374;4.946;2023-08-20T09:35:32;22.90;99.90
25092;DHT22;13082;52.374;4.946;2023-08-20T09:37:59;23.00;99.90
25092;DHT22;13082;52.374;4.946;2023-08-20T09:40:27;22.90;99.90
25092;DHT22;13082;52.374;4.946;2023-08-20T09:42:53;22.90;99.90
25092;DHT22;13082;52.374;4.946;2023-08-20T09:45:20;22.90;99.90
25092;DHT22;13082;52.374;4.946;2023-08-20T09:47:48;23.10;99.90
25092;DHT22;13082;52.374;4.946;2023-08-20T09:50:17;23.10;99.90
25092;DHT22;13082;52.374;4.946;2023-08-20T09:52:55;23.30;99.90
25092;DHT22;13082;52.374;4.946;2023-08-20T09:55:22;23.20;99.90
25092;DHT22;13082;52.374;4.946;2023-08-20T09:57:50;23.20;99.90
25092;DHT22;13082;52.374;4.946;2023-08-20T10:00:16;23.20;99.90
25092;DHT22;13082;52.374;4.946;2023-08-20T10:02:43;23.30;99.90
25092;DHT22;13082;52.374;4.946;2023-08-20T10:05:10;23.30;99.90
25092;DHT22;13082;52.374;4.946;2023-08-20T10:07:37;23.30;99.90
25092;DHT22;13082;52.374;4.946;2023-08-20T10:10:04;23.50;99.90
25092;DHT22;13082;52.374;4.946;2023-08-20T10:12:31;23.50;99.90
25092;DHT22;13082;52.374;4.946;2023-08-20T10:15:01;23.50;99.90
25092;DHT22;13082;52.374;4.946;2023-08-20T10:17:32;23.60;99.90
25092;DHT22;13082;52.374;4.946;2023-08-20T10:19:59;23.50;99.90
25092;DHT22;13082;52.374;4.946;2023-08-20T10:22:33;23.60;99.90
25092;DHT22;13082;52.374;4.946;2023-08-20T10:24:59;23.70;99.90
25092;DHT22;13082;52.374;4.946;2023-08-20T10:27:27;23.80;99.90
25092;DHT22;13082;52.374;4.946;2023-08-20T10:29:53;23.80;99.90
25092;DHT22;13082;52.374;4.946;2023-08-20T10:32:20;23.80;99.90
25092;DHT22;13082;52.374;4.946;2023-08-20T10:34:52;23.80;99.90
25092;DHT22;13082;52.374;4.946;2023-08-20T10:37:26;23.90;99.90
25092;DHT22;13082;52.374;4.946;2023-08-20T10:39:55;23.90;99.90
25092;DHT22;13082;52.374;4.946;2023-08-20T10:42:25;24.00;99.90
25092;DHT22;13082;52.374;4.946;2023-08-20T10:45:08;24.10;99.90
25092;DHT22;13082;52.374;4.946;2023-08-20T10:50:09;24.20;99.90
25092;DHT22;13082;52.374;4.946;2023-08-20T10:52:48;24.40;99.90
25092;DHT22;13082;52.374;4.946;2023-08-20T10:55:14;24.40;99.90
25092;DHT22;13082;52.374;4.946;2023-08-20T10:57:40;24.30;99.90
25092;DHT22;13082;52.374;4.946;2023-08-20T11:00:07;24.40;99.90
25092;DHT22;13082;52.374;4.946;2023-08-20T11:02:37;24.40;99.90
25092;DHT22;13082;52.374;4.946;2023-08-20T11:05:03;24.60;99.90
25092;DHT22;13082;52.374;4.946;2023-08-20T11:07:30;24.60;99.90
25092;DHT22;13082;52.374;4.946;2023-08-20T11:09:57;24.50;99.90
25092;DHT22;13082;52.374;4.946;2023-08-20T11:12:23;24.60;99.90
25092;DHT22;13082;52.374;4.946;2023-08-20T11:14:49;24.70;99.90
25092;DHT22;13082;52.374;4.946;2023-08-20T11:17:15;24.60;99.90
25092;DHT22;13082;52.374;4.946;2023-08-20T11:19:40;24.70;99.90
25092;DHT22;13082;52.374;4.946;2023-08-20T11:22:06;24.70;99.90
25092;DHT22;13082;52.374;4.946;2023-08-20T11:24:33;24.70;99.90
25092;DHT22;13082;52.374;4.946;2023-08-20T11:26:58;24.60;99.90
25092;DHT22;13082;52.374;4.946;2023-08-20T11:29:26;24.70;99.90
25092;DHT22;13082;52.374;4.946;2023-08-20T11:31:52;24.70;99.90
25092;DHT22;13082;52.374;4.946;2023-08-20T11:34:21;24.70;99.90
25092;DHT22;13082;52.374;4.946;2023-08-20T11:36:46;24.80;99.90
25092;DHT22;13082;52.374;4.946;2023-08-20T11:39:13;24.90;99.90
25092;DHT22;13082;52.374;4.946;2023-08-20T11:41:40;24.90;99.90
25092;DHT22;13082;52.374;4.946;2023-08-20T11:44:08;24.90;99.90
25092;DHT22;13082;52.374;4.946;2023-08-20T11:46:42;24.80;99.90
25092;DHT22;13082;52.374;4.946;2023-08-20T11:49:09;24.80;99.90
25092;DHT22;13082;52.374;4.946;2023-08-20T11:51:43;24.90;99.90
25092;DHT22;13082;52.374;4.946;2023-08-20T11:54:17;24.80;99.90
25092;DHT22;13082;52.374;4.946;2023-08-20T11:56:48;24.80;99.90
25092;DHT22;13082;52.374;4.946;2023-08-20T11:59:15;24.90;99.90
25092;DHT22;13082;52.374;4.946;2023-08-20T12:01:41;25.00;99.90
25092;DHT22;13082;52.374;4.946;2023-08-20T12:04:07;25.00;99.90
25092;DHT22;13082;52.374;4.946;2023-08-20T12:06:34;25.00;99.90
25092;DHT22;13082;52.374;4.946;2023-08-20T12:09:01;25.20;99.90
25092;DHT22;13082;52.374;4.946;2023-08-20T12:11:30;25.30;99.90
25092;DHT22;13082;52.374;4.946;2023-08-20T12:13:56;25.40;99.90
25092;DHT22;13082;52.374;4.946;2023-08-20T12:16:23;25.40;99.90
25092;DHT22;13082;52.374;4.946;2023-08-20T12:18:51;25.40;99.90
25092;DHT22;13082;52.374;4.946;2023-08-20T12:21:18;25.20;99.90
25092;DHT22;13082;52.374;4.946;2023-08-20T12:23:43;25.10;99.90
25092;DHT22;13082;52.374;4.946;2023-08-20T12:26:09;25.00;99.90
25092;DHT22;13082;52.374;4.946;2023-08-20T12:28:35;25.00;99.90
25092;DHT22;13082;52.374;4.946;2023-08-20T12:31:00;25.10;99.90
25092;DHT22;13082;52.374;4.946;2023-08-20T12:33:26;25.20;99.90
25092;DHT22;13082;52.374;4.946;2023-08-20T12:35:56;25.20;99.90
25092;DHT22;13082;52.374;4.946;2023-08-20T12:38:22;25.40;99.90
25092;DHT22;13082;52.374;4.946;2023-08-20T12:40:48;25.50;99.90
25092;DHT22;13082;52.374;4.946;2023-08-20T12:43:13;25.60;99.90
25092;DHT22;13082;52.374;4.946;2023-08-20T12:45:39;25.60;99.90
25092;DHT22;13082;52.374;4.946;2023-08-20T12:48:05;25.60;99.90
25092;DHT22;13082;52.374;4.946;2023-08-20T12:50:32;25.60;99.90
25092;DHT22;13082;52.374;4.946;2023-08-20T12:52:58;25.70;99.90
25092;DHT22;13082;52.374;4.946;2023-08-20T12:55:24;25.50;99.90
25092;DHT22;13082;52.374;4.946;2023-08-20T12:57:54;25.50;99.90
25092;DHT22;13082;52.374;4.946;2023-08-20T13:00:24;25.40;99.90
25092;DHT22;13082;52.374;4.946;2023-08-20T13:02:51;25.40;99.90
25092;DHT22;13082;52.374;4.946;2023-08-20T13:05:17;25.50;99.90
25092;DHT22;13082;52.374;4.946;2023-08-20T13:07:43;25.60;99.90
25092;DHT22;13082;52.374;4.946;2023-08-20T13:10:09;25.60;99.90
25092;DHT22;13082;52.374;4.946;2023-08-20T13:12:36;25.60;99.90
25092;DHT22;13082;52.374;4.946;2023-08-20T13:15:03;25.60;99.90
25092;DHT22;13082;52.374;4.946;2023-08-20T13:17:29;25.50;99.90
25092;DHT22;13082;52.374;4.946;2023-08-20T13:19:55;25.50;99.90
25092;DHT22;13082;52.374;4.946;2023-08-20T13:22:21;25.50;99.90
25092;DHT22;13082;52.374;4.946;2023-08-20T13:24:47;25.50;99.90
25092;DHT22;13082;52.374;4.946;2023-08-20T13:27:13;25.50;99.90
25092;DHT22;13082;52.374;4.946;2023-08-20T13:29:40;25.60;99.90
25092;DHT22;13082;52.374;4.946;2023-08-20T13:32:06;25.70;99.90
25092;DHT22;13082;52.374;4.946;2023-08-20T13:34:32;25.70;99.90
25092;DHT22;13082;52.374;4.946;2023-08-20T13:36:57;25.70;99.90
25092;DHT22;13082;52.374;4.946;2023-08-20T13:39:23;25.60;99.90
25092;DHT22;13082;52.374;4.946;2023-08-20T13:41:49;25.70;99.90
25092;DHT22;13082;52.374;4.946;2023-08-20T13:44:15;25.60;99.90
25092;DHT22;13082;52.374;4.946;2023-08-20T13:46:41;25.60;99.90
25092;DHT22;13082;52.374;4.946;2023-08-20T13:49:07;25.50;99.90
25092;DHT22;13082;52.374;4.946;2023-08-20T13:51:32;25.40;99.90
25092;DHT22;13082;52.374;4.946;2023-08-20T13:53:58;25.30;99.90
25092;DHT22;13082;52.374;4.946;2023-08-20T13:56:24;25.20;99.90
25092;DHT22;13082;52.374;4.946;2023-08-20T13:58:51;25.20;99.90
25092;DHT22;13082;52.374;4.946;2023-08-20T14:01:17;25.10;99.90
25092;DHT22;13082;52.374;4.946;2023-08-20T14:03:43;25.00;99.90
25092;DHT22;13082;52.374;4.946;2023-08-20T14:06:09;25.10;99.90
25092;DHT22;13082;52.374;4.946;2023-08-20T14:08:34;25.10;99.90
25092;DHT22;13082;52.374;4.946;2023-08-20T14:11:00;25.10;99.90
25092;DHT22;13082;52.374;4.946;2023-08-20T14:13:26;25.20;99.90
25092;DHT22;13082;52.374;4.946;2023-08-20T14:15:51;25.40;99.90
25092;DHT22;13082;52.374;4.946;2023-08-20T14:18:17;25.30;99.90
25092;DHT22;13082;52.374;4.946;2023-08-20T14:20:43;25.40;99.90
25092;DHT22;13082;52.374;4.946;2023-08-20T14:23:08;25.40;99.90
25092;DHT22;13082;52.374;4.946;2023-08-20T14:25:34;25.40;99.90
25092;DHT22;13082;52.374;4.946;2023-08-20T14:28:00;25.50;99.90
25092;DHT22;13082;52.374;4.946;2023-08-20T14:30:25;25.50;99.90
25092;DHT22;13082;52.374;4.946;2023-08-20T14:32:52;25.50;99.90
25092;DHT22;13082;52.374;4.946;2023-08-20T14:35:19;25.60;99.90
25092;DHT22;13082;52.374;4.946;2023-08-20T14:37:45;25.60;99.90
25092;DHT22;13082;52.374;4.946;2023-08-20T14:40:11;25.70;99.90
25092;DHT22;13082;52.374;4.946;2023-08-20T14:42:37;25.70;99.90
25092;DHT22;13082;52.374;4.946;2023-08-20T14:45:03;25.70;99.90
25092;DHT22;13082;52.374;4.946;2023-08-20T14:47:30;25.60;99.90
25092;DHT22;13082;52.374;4.946;2023-08-20T14:49:56;25.50;99.90
25092;DHT22;13082;52.374;4.946;2023-08-20T14:52:22;25.50;99.90
25092;DHT22;13082;52.374;4.946;2023-08-20T14:54:47;25.40;99.90
25092;DHT22;13082;52.374;4.946;2023-08-20T14:57:13;25.40;99.90
25092;DHT22;13082;52.374;4.946;2023-08-20T14:59:40;25.30;99.90
25092;DHT22;13082;52.374;4.946;2023-08-20T15:02:06;25.40;99.90
25092;DHT22;13082;52.374;4.946;2023-08-20T15:04:32;25.40;99.90
25092;DHT22;13082;52.374;4.946;2023-08-20T15:06:57;25.40;99.90
25092;DHT22;13082;52.374;4.946;2023-08-20T15:09:23;25.40;99.90
25092;DHT22;13082;52.374;4.946;2023-08-20T15:11:49;25.30;99.90
25092;DHT22;13082;52.374;4.946;2023-08-20T15:14:14;25.20;99.90
25092;DHT22;13082;52.374;4.946;2023-08-20T15:16:40;25.30;99.90
25092;DHT22;13082;52.374;4.946;2023-08-20T15:19:06;25.40;99.90
25092;DHT22;13082;52.374;4.946;2023-08-20T15:21:31;25.30;99.90
25092;DHT22;13082;52.374;4.946;2023-08-20T15:23:57;25.20;99.90
25092;DHT22;13082;52.374;4.946;2023-08-20T15:26:23;25.20;99.90
25092;DHT22;13082;52.374;4.946;2023-08-20T15:28:48;25.20;99.90
25092;DHT22;13082;52.374;4.946;2023-08-20T15:31:14;25.20;99.90
25092;DHT22;13082;52.374;4.946;2023-08-20T15:33:40;25.30;99.90
25092;DHT22;13082;52.374;4.946;2023-08-20T15:36:05;25.30;99.90
25092;DHT22;13082;52.374;4.946;2023-08-20T15:38:31;25.30;99.90
25092;DHT22;13082;52.374;4.946;2023-08-20T15:40:57;25.30;99.90